Time;durP1;ratioP1;P1;durP2;ratioP2;P2;SDS_P1;SDS_P2;PMS_P1;PMS_P2;Temp;Humidity;BMP_temperature;BMP_pressure;BME280_temperature;BME280_humidity;BME280_pressure;Samples;Min_cycle;Max_cycle;Signal;HPM_P1;HPM_P2
2023/06/08 00:13:13;;;;;;;7.23;2.23;;;;;;;19.46;62.51;99039.22;5791645;24;20276;-90
2023/06/08 00:16:03;;;;;;;5.07;2.17;;;;;;;19.45;62.60;99045.50;5732696;24;20183;-90
2023/06/08 00:22:14;;;;;;;;;;;;;;;;;;;;;
2023/06/08 00:24:58;;;;;;;5.43;1.93;;;;;;;19.38;62.39;99033.75;5785359;24;20186;-91
2023/06/08 00:34:04;;;;;;;;;;;;;;;;;;;;;
2023/06/08 00:37:20;;;;;;;;;;;;;;;;;;;;;
2023/06/08 00:40:46;;;;;;;;;;;;;;;;;;;;;
2023/06/08 00:44:01;;;;;;;3.67;1.97;;;;;;;18.75;64.08;99040.28;5818017;24;20715;-90
2023/06/08 00:47:07;;;;;;;;;;;;;;;;;;;;;
2023/06/08 01:04:14;;;;;;;3.10;1.53;;;;;;;18.64;63.50;99027.94;5833171;24;20170;-89
2023/06/08 01:07:17;;;;;;;4.80;2.07;;;;;;;18.59;63.45;99027.50;5978576;24;20159;-90
2023/06/08 01:10:10;;;;;;;4.30;1.80;;;;;;;18.54;63.33;99021.75;6051364;23;20174;-89
2023/06/08 01:13:35;;;;;;;;;;;;;;;;;;;;;
2023/06/08 01:16:47;;;;;;;;;;;;;;;;;;;;;
2023/06/08 01:19:38;;;;;;;;;;;;;;;;;;;;;
2023/06/08 01:22:46;;;;;;;3.90;1.70;;;;;;;18.28;64.04;99025.78;6074648;23;20212;-90
2023/06/08 01:25:55;;;;;;;;;;;;;;;;;;;;;
2023/06/08 01:42:28;;;;;;;;;;;;;;;;;;;;;
2023/06/08 01:53:05;;;;;;;;;;;;;;;;;;;;;
2023/06/08 02:02:34;;;;;;;6.13;2.10;;;;;;;17.96;64.48;99041.78;5988889;23;20166;-90
2023/06/08 02:15:02;;;;;;;;;;;;;;;;;;;;;
2023/06/08 02:18:44;;;;;;;2.67;1.47;;;;;;;17.86;66.35;99047.97;5964254;23;20249;-90
2023/06/08 02:21:54;;;;;;;;;;;;;;;;;;;;;
2023/06/08 02:25:02;;;;;;;;;;;;;;;;;;;;;
2023/06/08 02:41:08;;;;;;;;;;;;;;;;;;;;;
2023/06/08 05:30:47;;;;;;;;;;;;;;;;;;;;;
2023/06/08 05:44:22;;;;;;;;;;;;;;;;;;;;;
2023/06/08 06:02:12;;;;;;;7.77;4.27;;;;;;;21.95;60.92;99080.97;5650048;25;20600;-91
2023/06/08 06:04:50;;;;;;;9.40;4.53;;;;;;;22.00;61.12;99073.34;5766695;24;20245;-90
2023/06/08 06:18:01;;;;;;;6.63;3.70;;;;;;;22.69;57.69;99083.22;5903101;24;20157;-90
2023/06/08 06:21:13;;;;;;;7.93;4.70;;;;;;;22.72;58.31;99072.22;5992347;23;20154;-91
2023/06/08 06:24:06;;;;;;;15.03;5.10;;;;;;;22.86;56.47;99079.59;5947757;23;20299;-87
2023/06/08 06:27:06;;;;;;;;;;;;;;;;;;;;;
2023/06/08 06:29:42;;;;;;;7.63;4.40;;;;;;;22.74;57.86;99086.25;6072659;23;20725;-89
2023/06/08 06:32:12;;;;;;;10.47;4.60;;;;;;;22.85;57.91;99083.31;6184687;23;20597;-90
2023/06/08 06:34:38;;;;;;;8.43;4.30;;;;;;;22.88;56.36;99081.13;6185579;23;20571;-90
2023/06/08 06:37:04;;;;;;;10.37;4.60;;;;;;;22.91;57.11;99074.63;6184370;23;20162;-89
2023/06/08 06:42:50;;;;;;;10.23;5.47;;;;;;;23.14;56.79;99067.69;6174927;23;20189;-90
2023/06/08 06:45:30;;;;;;;10.97;5.73;;;;;;;23.25;56.90;99075.44;6185495;23;20217;-89
2023/06/08 06:51:18;;;;;;;;;;;;;;;;;;;;;
2023/06/08 06:57:15;;;;;;;10.07;5.83;;;;;;;23.40;57.38;99067.66;6153003;23;20162;-90
2023/06/08 06:59:52;;;;;;;8.43;5.37;;;;;;;23.57;57.40;99064.00;6184128;23;20600;-89
2023/06/08 07:05:57;;;;;;;;;;;;;;;;;;;;;
2023/06/08 07:18:11;;;;;;;7.37;4.30;;;;;;;25.46;50.69;99066.94;6169282;23;20225;-89
2023/06/08 07:21:06;;;;;;;11.37;5.20;;;;;;;25.55;50.32;99069.38;6185617;23;20213;-90
2023/06/08 07:23:32;;;;;;;8.20;5.10;;;;;;;25.54;51.59;99062.38;6185616;23;20142;-89
2023/06/08 07:25:58;;;;;;;11.60;5.57;;;;;;;25.61;49.49;99060.63;6184136;23;20159;-90
2023/06/08 07:28:54;;;;;;;14.90;4.67;;;;;;;25.84;49.48;99054.44;6184129;23;20224;-91
2023/06/08 07:32:33;;;;;;;;;;;;;;;;;;;;;
2023/06/08 07:34:59;;;;;;;10.70;5.07;;;;;;;26.18;47.82;99047.63;6181946;23;20232;-90
2023/06/08 07:37:33;;;;;;;7.87;4.70;;;;;;;26.28;49.22;99051.91;6185574;23;20472;-90
2023/06/08 07:40:19;;;;;;;7.20;4.43;;;;;;;26.37;48.95;99043.56;6184694;23;20269;-90
2023/06/08 07:42:46;;;;;;;8.87;4.47;;;;;;;26.59;47.32;99047.22;6183988;23;20479;-90
2023/06/08 07:45:21;;;;;;;8.77;5.17;;;;;;;26.90;46.66;99042.53;6185298;23;20650;-91
2023/06/08 07:48:38;;;;;;;;;;;;;;;;;;;;;
2023/06/08 07:55:03;;;;;;;;;;;;;;;;;;;;;
2023/06/08 07:57:37;;;;;;;;;;;;;;;;;;;;;
2023/06/08 08:00:09;;;;;;;5.97;3.53;;;;;;;27.54;44.14;99037.34;6160677;23;20553;-89
2023/06/08 08:02:45;;;;;;;7.35;4.25;;;;;;;27.59;43.45;99033.06;6186220;23;20225;-90
2023/06/08 08:06:07;;;;;;;;;;;;;;;;;;;;;
2023/06/08 08:09:06;;;;;;;12.10;4.85;;;;;;;27.62;43.42;99037.22;6153871;23;20237;-91
2023/06/08 08:15:29;;;;;;;;;;;;;;;;;;;;;
2023/06/08 08:37:22;;;;;;;7.00;3.65;;;;;;;27.83;42.66;99029.16;5926615;24;20176;-91
2023/06/08 08:54:28;;;;;;;;;;;;;;;;;;;;;
2023/06/08 09:32:46;;;;;;;4.95;1.65;;;;;;;29.29;39.74;98984.91;5798512;24;20205;-91
2023/06/08 09:42:46;;;;;;;4.93;1.70;;;;;;;29.54;38.07;98977.91;5708634;24;20189;-89
2023/06/08 10:11:20;;;;;;;;;;;;;;;;;;;;;
2023/06/08 10:36:41;;;;;;;;;;;;;;;;;;;;;
2023/06/08 10:43:00;;;;;;;5.75;2.33;;;;;;;30.85;35.80;98896.63;5921173;24;20161;-90
2023/06/08 10:45:37;;;;;;;5.45;1.35;;;;;;;30.69;35.54;98894.41;5965258;23;20170;-91
2023/06/08 10:48:52;;;;;;;;;;;;;;;;;;;;;
2023/06/08 10:51:24;;;;;;;4.95;2.15;;;;;;;30.12;36.14;98888.94;6127150;23;20663;-91
2023/06/08 10:53:57;;;;;;;2.75;1.58;;;;;;;30.30;36.72;98883.69;6125760;23;20163;-92
2023/06/08 10:56:52;;;;;;;4.75;1.48;;;;;;;30.56;37.57;98878.22;6125392;23;20584;-90
2023/06/08 10:59:35;;;;;;;4.68;2.00;;;;;;;30.83;34.63;98871.66;6125233;23;20564;-90
2023/06/08 11:02:49;;;;;;;6.25;1.50;;;;;;;30.87;35.00;98872.88;6125283;23;20136;-90
2023/06/08 11:23:20;;;;;;;3.85;1.83;;;;;;;30.98;36.65;98842.44;5809476;24;20285;-92
2023/06/08 11:25:54;;;;;;;4.43;1.90;;;;;;;30.87;34.82;98850.41;5794478;24;20174;-92
2023/06/08 11:28:24;;;;;;;5.32;1.50;;;;;;;30.92;35.11;98853.31;5818103;24;20266;-93
2023/06/08 11:37:41;;;;;;;5.93;1.48;;;;;;;31.81;34.22;98843.06;5819407;24;20163;-91
2023/06/08 11:47:05;;;;;;;2.75;1.30;;;;;;;31.82;32.54;98839.28;5767203;24;20514;-93
2023/06/08 11:50:53;;;;;;;6.07;2.17;;;;;;;31.80;34.50;98835.97;5779260;24;20676;-91
2023/06/08 11:59:59;;;;;;;;;;;;;;;;;;;;;
2023/06/08 12:02:44;;;;;;;;;;;;;;;;;;;;;
2023/06/08 12:05:50;;;;;;;;;;;;;;;;;;;;;
2023/06/08 12:08:20;;;;;;;1.90;1.00;;;;;;;31.88;32.45;98827.53;6084980;23;20246;-91
2023/06/08 12:11:00;;;;;;;17.38;2.40;;;;;;;31.39;32.63;98835.69;6126757;23;20180;-92
2023/06/08 12:13:48;;;;;;;6.38;1.52;;;;;;;31.34;32.54;98824.69;6126947;23;20143;-93
2023/06/08 12:16:16;;;;;;;5.43;1.60;;;;;;;31.60;32.86;98835.34;6128627;23;20594;-91
2023/06/08 12:23:44;;;;;;;;;;;;;;;;;;;;;
2023/06/08 12:50:30;;;;;;;3.25;1.60;;;;;;;31.90;30.37;98784.75;5726213;25;20242;-92
2023/06/08 12:57:34;;;;;;;4.18;1.48;;;;;;;32.16;30.38;98770.94;5712566;25;20181;-92
2023/06/08 13:00:10;;;;;;;2.88;1.33;;;;;;;32.12;29.75;98774.31;5643323;25;20179;-91
2023/06/08 13:02:57;;;;;;;3.40;1.20;;;;;;;32.42;32.05;98768.91;5832777;24;20181;-91
2023/06/08 13:05:28;;;;;;;2.92;1.25;;;;;;;32.12;29.50;98772.44;5845761;24;20167;-91
2023/06/08 13:08:32;;;;;;;3.58;1.42;;;;;;;32.13;29.60;98779.50;5845611;24;20162;-92
2023/06/08 13:11:01;;;;;;;3.38;1.17;;;;;;;32.33;29.92;98776.56;5845776;24;20198;-92
2023/06/08 13:13:57;;;;;;;;;;;;;;;;;;;;;
2023/06/08 13:17:02;;;;;;;3.20;1.13;;;;;;;32.50;29.41;98774.03;6070167;23;20235;-91
2023/06/08 13:19:33;;;;;;;5.15;1.63;;;;;;;32.54;29.04;98767.97;6126424;23;20148;-91
2023/06/08 13:22:12;;;;;;;;;;;;;;;;;;;;;
2023/06/08 13:28:23;;;;;;;3.03;1.02;;;;;;;33.21;29.74;98752.31;6045180;23;20161;-92
2023/06/08 13:31:44;;;;;;;2.88;1.33;;;;;;;33.58;29.86;98732.03;6072600;23;20192;-92
2023/06/08 13:34:30;;;;;;;3.08;1.33;;;;;;;33.34;30.19;98723.03;6042971;23;20207;-91
2023/06/08 13:37:54;;;;;;;;;;;;;;;;;;;;;
2023/06/08 14:04:45;;;;;;;;;;;;;;;;;;;;;
2023/06/08 14:11:22;;;;;;;;;;;;;;;;;;;;;
2023/06/08 14:17:56;;;;;;;3.15;1.40;;;;;;;32.53;29.08;98700.34;6000167;23;20182;-90
2023/06/08 14:31:57;;;;;;;;;;;;;;;;;;;;;
2023/06/08 14:48:49;;;;;;;5.57;1.80;;;;;;;32.10;31.92;98630.00;5901285;24;20187;-92
2023/06/08 14:51:57;;;;;;;;;;;;;;;;;;;;;
2023/06/08 14:57:17;;;;;;;4.15;1.45;;;;;;;31.25;32.56;98620.16;5999876;23;20184;-92
2023/06/08 14:59:43;;;;;;;2.85;1.20;;;;;;;31.34;32.08;98635.09;6091362;23;20186;-89
2023/06/08 15:02:08;;;;;;;5.70;1.17;;;;;;;31.34;32.36;98635.88;6124899;23;20148;-89
2023/06/08 15:04:34;;;;;;;3.50;1.30;;;;;;;31.21;31.76;98649.56;6125521;23;20178;-90
2023/06/08 15:06:59;;;;;;;2.25;0.93;;;;;;;31.13;31.48;98643.63;6125456;23;20170;-90
2023/06/08 15:09:25;;;;;;;3.92;1.40;;;;;;;30.99;31.37;98648.34;6125220;23;20246;-90
2023/06/08 15:11:51;;;;;;;2.80;1.48;;;;;;;30.88;30.94;98652.56;6125219;23;20231;-91
2023/06/08 15:14:16;;;;;;;5.68;1.40;;;;;;;30.96;31.10;98652.31;6125574;23;20580;-90
2023/06/08 15:16:42;;;;;;;3.03;1.48;;;;;;;31.04;31.26;98648.50;6126341;23;20152;-90
2023/06/08 15:19:07;;;;;;;2.60;1.00;;;;;;;31.28;31.41;98646.81;6126101;23;20163;-90
2023/06/08 15:21:33;;;;;;;4.03;1.38;;;;;;;31.30;30.21;98644.69;6126327;23;20148;-90
2023/06/08 15:23:58;;;;;;;3.78;1.08;;;;;;;31.05;29.60;98652.03;6125181;23;20187;-90
2023/06/08 15:26:25;;;;;;;3.55;1.20;;;;;;;30.57;30.04;98655.34;6125162;23;20160;-90
2023/06/08 15:28:53;;;;;;;4.15;0.80;;;;;;;30.71;30.71;98656.91;6126127;23;20227;-89
2023/06/08 15:31:21;;;;;;;2.28;1.00;;;;;;;31.14;29.90;98642.56;6126734;23;20225;-90
2023/06/08 15:33:58;;;;;;;4.63;1.40;;;;;;;31.08;29.49;98641.56;6126520;23;20163;-91
2023/06/08 15:36:24;;;;;;;2.85;1.27;;;;;;;31.12;30.30;98642.81;6125139;23;20148;-90
2023/06/08 15:38:50;;;;;;;2.92;0.82;;;;;;;31.04;29.99;98643.09;6125400;23;20160;-90
2023/06/08 15:41:15;;;;;;;2.05;1.00;;;;;;;30.95;29.43;98631.72;6125063;23;20158;-90
2023/06/08 15:43:41;;;;;;;1.95;1.00;;;;;;;31.12;29.76;98633.84;6126476;23;20159;-90
2023/06/08 15:46:07;;;;;;;5.82;0.90;;;;;;;31.11;30.14;98630.31;6126950;23;20284;-89
2023/06/08 15:48:33;;;;;;;2.35;1.13;;;;;;;31.22;29.92;98626.03;6125068;23;20186;-91
2023/06/08 15:51:01;;;;;;;6.25;1.15;;;;;;;31.31;30.57;98630.94;6124894;23;20242;-90
2023/06/08 15:53:26;;;;;;;2.67;1.10;;;;;;;31.25;30.28;98631.00;6126019;23;20172;-90
2023/06/08 15:55:52;;;;;;;2.05;0.75;;;;;;;31.02;30.36;98635.19;6126073;23;20148;-90
2023/06/08 15:58:25;;;;;;;3.05;1.30;;;;;;;31.02;30.22;98635.19;6126435;23;20551;-90
2023/06/08 16:00:52;;;;;;;4.45;1.33;;;;;;;30.74;30.57;98645.59;6125288;23;20140;-89
2023/06/08 16:03:19;;;;;;;2.35;1.08;;;;;;;30.56;30.53;98642.84;6126024;23;20152;-90
2023/06/08 16:05:45;;;;;;;3.15;0.98;;;;;;;30.41;30.77;98642.34;6126042;23;20156;-90
2023/06/08 16:08:15;;;;;;;3.67;1.45;;;;;;;30.39;31.11;98641.75;6124873;23;20166;-90
2023/06/08 16:10:40;;;;;;;3.13;0.95;;;;;;;30.60;31.97;98644.06;6126158;23;20274;-90
2023/06/08 16:13:06;;;;;;;6.07;1.40;;;;;;;30.63;30.50;98642.81;6124786;23;20183;-89
2023/06/08 16:15:31;;;;;;;3.13;1.02;;;;;;;30.25;31.26;98645.53;6126104;23;20183;-89
2023/06/08 16:17:57;;;;;;;2.30;0.90;;;;;;;30.34;32.21;98647.78;6124922;23;20614;-90
2023/06/08 16:20:22;;;;;;;3.97;1.30;;;;;;;30.39;31.85;98658.81;6126837;23;20564;-90
2023/06/08 16:22:49;;;;;;;3.88;1.50;;;;;;;30.38;32.12;98661.72;6125052;23;20202;-90
2023/06/08 16:25:14;;;;;;;3.33;1.20;;;;;;;30.43;31.91;98654.59;6122395;23;20206;-89
2023/06/08 16:27:40;;;;;;;1.85;0.88;;;;;;;30.46;32.78;98653.34;6127112;23;20531;-89
2023/06/08 16:30:06;;;;;;;3.15;1.20;;;;;;;30.63;32.46;98648.22;6128025;23;20478;-90
2023/06/08 16:32:33;;;;;;;2.10;0.70;;;;;;;30.53;33.52;98653.28;6126595;23;20183;-91
2023/06/08 16:35:00;;;;;;;2.78;1.33;;;;;;;30.58;34.05;98657.00;6126338;23;20508;-89
2023/06/08 16:37:25;;;;;;;3.45;1.20;;;;;;;30.40;34.83;98654.19;6127175;23;20181;-90
2023/06/08 16:40:03;;;;;;;3.70;1.23;;;;;;;30.22;35.31;98657.63;6126429;23;20603;-89
2023/06/08 16:42:32;;;;;;;2.88;1.20;;;;;;;30.21;34.82;98653.28;6126784;23;20136;-90
2023/06/08 16:44:59;;;;;;;4.15;1.23;;;;;;;30.06;34.70;98650.00;6127822;23;20158;-90
2023/06/08 16:47:26;;;;;;;1.85;0.90;;;;;;;29.81;34.54;98647.25;6127465;23;20205;-90
2023/06/08 16:49:52;;;;;;;4.25;1.27;;;;;;;29.66;34.31;98646.66;6127389;23;20151;-89
2023/06/08 16:52:19;;;;;;;2.65;1.23;;;;;;;29.79;35.04;98646.66;6126198;23;20190;-90
2023/06/08 16:54:46;;;;;;;6.80;0.85;;;;;;;29.86;35.22;98652.00;6126600;23;20213;-89
2023/06/08 16:57:11;;;;;;;2.97;1.13;;;;;;;29.87;35.83;98658.25;6127323;23;20148;-89
2023/06/08 16:59:42;;;;;;;3.63;0.75;;;;;;;29.41;35.46;98653.78;6126202;23;20159;-89
2023/06/08 17:02:09;;;;;;;3.20;1.38;;;;;;;29.34;36.07;98653.00;6127659;23;20211;-90
2023/06/08 17:04:35;;;;;;;2.35;1.02;;;;;;;29.42;35.76;98652.78;6127091;23;20163;-89
2023/06/08 17:07:02;;;;;;;2.45;1.20;;;;;;;29.41;35.17;98651.09;6127564;23;20568;-89
2023/06/08 17:09:29;;;;;;;2.17;1.00;;;;;;;29.34;35.81;98660.25;6127684;23;20155;-89
2023/06/08 17:11:55;;;;;;;2.28;1.00;;;;;;;29.09;35.33;98665.47;6127203;23;20266;-90
2023/06/08 17:14:22;;;;;;;4.82;2.20;;;;;;;28.78;35.15;98670.66;6125994;23;20187;-88
2023/06/08 17:16:49;;;;;;;6.65;1.25;;;;;;;28.77;34.33;98677.97;6127296;23;20152;-90
2023/06/08 17:19:15;;;;;;;3.33;1.25;;;;;;;28.75;34.98;98671.13;6127068;23;20152;-89
2023/06/08 17:21:41;;;;;;;2.67;1.10;;;;;;;28.77;34.17;98664.47;6126020;23;20144;-89
2023/06/08 17:24:07;;;;;;;3.47;1.02;;;;;;;28.71;33.71;98675.25;6126996;23;20298;-89
2023/06/08 17:26:36;;;;;;;2.92;1.00;;;;;;;28.66;33.79;98672.34;6127091;23;20195;-90
2023/06/08 17:29:03;;;;;;;2.30;0.90;;;;;;;28.63;32.83;98679.81;6125701;23;20183;-90
2023/06/08 17:31:30;;;;;;;4.78;1.55;;;;;;;28.57;32.79;98683.28;6126206;23;20179;-89
2023/06/08 17:33:57;;;;;;;2.67;1.25;;;;;;;28.61;32.39;98673.81;6125741;23;20662;-89
2023/06/08 17:36:22;;;;;;;2.88;1.05;;;;;;;28.68;32.16;98679.19;6127029;23;20152;-89
2023/06/08 17:38:49;;;;;;;8.70;1.80;;;;;;;28.65;33.01;98685.00;6125690;23;20182;-89
2023/06/08 17:41:16;;;;;;;2.65;1.08;;;;;;;28.67;32.41;98685.59;6125724;23;20648;-90
2023/06/08 17:43:48;;;;;;;3.45;1.40;;;;;;;28.69;32.40;98688.94;6126874;23;20148;-90
2023/06/08 17:46:16;;;;;;;1.50;0.68;;;;;;;28.60;32.74;98684.75;6126829;23;20155;-89
2023/06/08 17:48:43;;;;;;;3.72;1.20;;;;;;;28.55;32.54;98682.69;6127566;23;20155;-89
2023/06/08 17:51:10;;;;;;;8.68;1.42;;;;;;;28.45;32.55;98693.03;6127408;23;20183;-89
2023/06/08 17:53:37;;;;;;;5.72;1.60;;;;;;;28.25;33.46;98696.72;6125623;23;20243;-90
2023/06/08 17:56:03;;;;;;;2.65;0.98;;;;;;;28.17;32.95;98700.41;6127382;23;20148;-90
2023/06/08 17:58:29;;;;;;;2.17;1.10;;;;;;;28.18;33.06;98698.56;6127121;23;20163;-88
2023/06/08 18:00:55;;;;;;;6.75;1.00;;;;;;;28.06;33.04;98701.03;6127378;23;20152;-90
2023/06/08 18:03:24;;;;;;;4.43;1.10;;;;;;;28.00;33.39;98710.72;6125602;23;20155;-89
2023/06/08 18:05:51;;;;;;;2.45;1.00;;;;;;;27.95;33.90;98720.44;6126676;23;20227;-89
2023/06/08 18:08:18;;;;;;;4.70;1.48;;;;;;;27.92;33.77;98715.44;6127006;23;20158;-89
2023/06/08 18:10:45;;;;;;;2.80;1.10;;;;;;;27.94;33.47;98714.22;6126499;23;20214;-89
2023/06/08 18:13:12;;;;;;;4.25;1.40;;;;;;;27.98;33.41;98709.25;6126939;23;20151;-90
2023/06/08 18:15:37;;;;;;;2.22;0.90;;;;;;;27.96;33.38;98714.03;6126334;23;20148;-89
2023/06/08 18:18:04;;;;;;;5.10;1.13;;;;;;;27.91;33.76;98708.38;6127203;23;20162;-89
2023/06/08 18:20:30;;;;;;;1.92;1.00;;;;;;;27.90;33.83;98717.50;6126866;23;20147;-89
2023/06/08 18:22:56;;;;;;;2.42;1.00;;;;;;;27.87;33.57;98718.75;6126347;23;20199;-90
2023/06/08 18:25:23;;;;;;;4.07;1.02;;;;;;;27.83;34.04;98722.03;6125364;23;20169;-90
2023/06/08 18:27:49;;;;;;;3.90;1.08;;;;;;;27.77;34.10;98715.59;6126797;23;20147;-89
2023/06/08 18:30:16;;;;;;;2.95;1.10;;;;;;;27.66;34.06;98728.78;6125121;23;20159;-89
2023/06/08 18:32:43;;;;;;;5.85;1.13;;;;;;;27.47;34.21;98722.25;6127033;23;20180;-88
2023/06/08 18:35:12;;;;;;;4.63;1.27;;;;;;;27.32;34.98;98725.03;6125172;23;20155;-90
2023/06/08 18:37:38;;;;;;;3.77;1.40;;;;;;;27.13;35.57;98725.72;6125685;23;20155;-89
2023/06/08 18:40:06;;;;;;;2.93;1.20;;;;;;;26.99;35.51;98740.06;6126490;23;20156;-89
2023/06/08 18:42:33;;;;;;;2.73;1.07;;;;;;;26.89;35.99;98739.59;6124955;23;20175;-90
2023/06/08 18:44:58;;;;;;;5.97;1.30;;;;;;;26.79;36.42;98744.47;6126757;23;20162;-90
2023/06/08 18:47:26;;;;;;;2.57;1.20;;;;;;;26.68;36.99;98747.63;6125074;23;20183;-89
2023/06/08 18:49:53;;;;;;;2.87;1.27;;;;;;;26.57;36.86;98742.78;6126722;23;20218;-89
2023/06/08 18:52:18;;;;;;;4.10;1.57;;;;;;;26.48;37.38;98741.22;6124516;23;20260;-88
2023/06/08 18:54:47;;;;;;;3.53;1.30;;;;;;;26.35;37.87;98735.72;6125199;23;20268;-89
2023/06/08 18:57:13;;;;;;;3.10;1.33;;;;;;;26.14;38.24;98734.66;6124685;23;20238;-89
2023/06/08 18:59:38;;;;;;;6.20;1.30;;;;;;;26.01;38.94;98734.47;6125803;23;20147;-89
2023/06/08 19:02:05;;;;;;;2.97;1.10;;;;;;;25.91;39.33;98733.94;6124624;23;20515;-89
2023/06/08 19:04:30;;;;;;;3.30;1.30;;;;;;;25.85;39.51;98733.84;6125430;23;20595;-89
2023/06/08 19:06:55;;;;;;;2.47;1.23;;;;;;;25.74;39.72;98743.19;6124574;23;20229;-89
2023/06/08 19:09:28;;;;;;;2.83;1.37;;;;;;;25.59;40.16;98732.47;6125477;23;20627;-89
2023/06/08 19:11:54;;;;;;;5.30;1.20;;;;;;;25.50;40.70;98740.78;6125407;23;20168;-90
2023/06/08 19:14:20;;;;;;;2.87;1.20;;;;;;;25.40;40.87;98746.41;6125863;23;20168;-89
2023/06/08 19:16:50;;;;;;;2.97;1.10;;;;;;;25.32;41.25;98741.13;6124307;23;20184;-89
2023/06/08 19:19:20;;;;;;;2.00;1.00;;;;;;;25.27;41.64;98748.06;6124517;23;20254;-91
2023/06/08 19:21:46;;;;;;;4.83;1.00;;;;;;;25.15;42.38;98752.22;6126245;23;20144;-90
2023/06/08 19:24:11;;;;;;;2.50;1.20;;;;;;;25.19;42.19;98758.84;6125497;23;20167;-90
2023/06/08 19:26:40;;;;;;;4.23;1.57;;;;;;;25.10;42.97;98762.66;6124538;23;20160;-90
2023/06/08 19:29:09;;;;;;;4.23;1.20;;;;;;;25.10;42.62;98765.34;6124934;23;20214;-90
2023/06/08 19:31:34;;;;;;;5.13;1.40;;;;;;;25.08;43.15;98772.72;6125439;23;20217;-90
2023/06/08 19:34:02;;;;;;;5.33;1.40;;;;;;;25.09;43.26;98771.69;6125768;23;20152;-90
2023/06/08 19:36:27;;;;;;;2.93;1.70;;;;;;;25.20;43.67;98779.31;6125634;23;20513;-91
2023/06/08 19:38:53;;;;;;;3.87;1.20;;;;;;;25.23;43.39;98776.28;6124265;23;20166;-90
2023/06/08 19:41:22;;;;;;;3.43;1.30;;;;;;;25.14;43.63;98772.81;6125310;23;20183;-90
2023/06/08 19:43:51;;;;;;;2.53;1.57;;;;;;;25.04;43.81;98766.88;6125698;23;20175;-90
2023/06/08 19:46:18;;;;;;;4.87;1.53;;;;;;;24.97;44.39;98769.44;6125494;23;20556;-90
2023/06/08 19:48:44;;;;;;;3.00;1.30;;;;;;;24.89;44.57;98774.91;6125225;23;20169;-90
2023/06/08 19:51:13;;;;;;;4.17;1.40;;;;;;;24.83;44.96;98775.59;6126068;23;20608;-91
2023/06/08 19:53:38;;;;;;;3.50;1.30;;;;;;;24.73;45.34;98780.34;6126246;23;20148;-90
2023/06/08 19:56:04;;;;;;;2.37;1.00;;;;;;;24.62;45.48;98772.72;6127153;23;20167;-90
2023/06/08 19:58:30;;;;;;;3.93;1.87;;;;;;;24.56;46.08;98778.78;6126334;23;20175;-90
2023/06/08 20:00:55;;;;;;;5.43;1.83;;;;;;;24.53;46.32;98783.69;6126577;23;20591;-90
2023/06/08 20:03:21;;;;;;;4.43;1.50;;;;;;;24.43;46.38;98783.88;6125697;23;20159;-90
2023/06/08 20:05:47;;;;;;;3.67;1.40;;;;;;;24.39;46.69;98787.94;6127217;23;20151;-90
2023/06/08 20:08:15;;;;;;;3.30;1.30;;;;;;;24.24;47.22;98784.34;6126017;23;20160;-90
2023/06/08 20:10:41;;;;;;;3.90;1.60;;;;;;;24.23;47.44;98782.66;6126056;23;20152;-90
2023/06/08 20:13:06;;;;;;;2.57;1.27;;;;;;;24.16;47.68;98779.03;6126140;23;20155;-89
2023/06/08 20:15:37;;;;;;;11.80;1.67;;;;;;;24.11;47.86;98786.75;6127088;23;20158;-91
2023/06/08 20:18:05;;;;;;;3.87;1.37;;;;;;;24.08;47.96;98795.09;6125341;23;20156;-90
2023/06/08 20:20:30;;;;;;;3.30;1.47;;;;;;;24.02;48.38;98799.31;6127098;23;20174;-89
2023/06/08 20:22:58;;;;;;;5.43;1.67;;;;;;;23.97;48.30;98792.81;6121315;23;20793;-91
2023/06/08 20:25:25;;;;;;;3.07;1.20;;;;;;;23.87;49.08;98803.72;6122998;23;20541;-90
2023/06/08 20:27:53;;;;;;;4.23;1.43;;;;;;;23.79;49.54;98811.78;6125652;23;20155;-89
2023/06/08 20:30:20;;;;;;;3.20;1.40;;;;;;;23.71;50.02;98815.31;6125025;23;20650;-90
2023/06/08 20:32:47;;;;;;;3.50;1.63;;;;;;;23.60;50.60;98821.03;6127079;23;20242;-90
2023/06/08 20:35:14;;;;;;;3.97;1.67;;;;;;;23.49;51.30;98820.53;6127382;23;20584;-90
2023/06/08 20:37:41;;;;;;;5.47;1.73;;;;;;;23.45;51.42;98820.06;6126656;23;20156;-90
2023/06/08 20:40:08;;;;;;;3.77;1.60;;;;;;;23.37;51.30;98827.25;6127060;23;20151;-90
2023/06/08 20:42:35;;;;;;;6.73;1.50;;;;;;;23.23;51.67;98821.53;6126624;23;20646;-89
2023/06/08 20:45:02;;;;;;;6.13;2.03;;;;;;;23.19;52.08;98824.72;6127477;23;20475;-89
2023/06/08 20:47:30;;;;;;;3.33;1.60;;;;;;;23.11;52.57;98825.53;6126294;23;20156;-90
2023/06/08 20:49:59;;;;;;;3.87;1.73;;;;;;;23.05;52.94;98817.34;6127711;23;20152;-90
2023/06/08 20:52:26;;;;;;;4.17;1.97;;;;;;;22.97;53.04;98818.19;6128043;23;20611;-89
2023/06/08 20:54:53;;;;;;;4.53;1.77;;;;;;;22.91;53.55;98821.53;6127753;23;20453;-90
2023/06/08 20:57:19;;;;;;;3.70;2.23;;;;;;;22.84;53.17;98823.19;6127649;23;20466;-90
2023/06/08 20:59:46;;;;;;;3.80;1.77;;;;;;;22.89;53.68;98828.03;6127278;23;20186;-90
2023/06/08 21:02:12;;;;;;;4.13;1.87;;;;;;;22.82;54.00;98832.38;6127444;23;20151;-89
2023/06/08 21:04:44;;;;;;;4.07;1.93;;;;;;;22.68;54.42;98830.34;6127045;23;20213;-90
2023/06/08 21:07:11;;;;;;;2.63;1.40;;;;;;;22.59;54.62;98827.63;6127197;23;20333;-90
2023/06/08 21:09:37;;;;;;;3.77;1.50;;;;;;;22.57;55.04;98837.66;6127605;23;20148;-90
2023/06/08 21:12:05;;;;;;;3.73;1.60;;;;;;;22.53;54.88;98836.31;6125853;23;20184;-90
2023/06/08 21:14:30;;;;;;;5.43;1.87;;;;;;;22.50;55.16;98833.97;6125978;23;20491;-90
2023/06/08 21:17:00;;;;;;;5.90;2.00;;;;;;;22.35;55.56;98827.56;6126094;23;20159;-90
2023/06/08 21:19:26;;;;;;;5.17;1.87;;;;;;;22.33;55.66;98829.56;6127560;23;20646;-90
2023/06/08 21:21:56;;;;;;;3.23;1.70;;;;;;;22.31;55.63;98831.56;6126027;23;20152;-91
2023/06/08 21:24:26;;;;;;;15.30;2.67;;;;;;;22.30;55.68;98829.88;6125915;23;20203;-90
2023/06/08 21:26:55;;;;;;;7.33;1.90;;;;;;;22.31;55.69;98828.88;6127427;23;20144;-90
2023/06/08 21:29:22;;;;;;;3.53;1.63;;;;;;;22.30;55.87;98827.22;6127090;23;20186;-90
2023/06/08 21:31:49;;;;;;;3.47;1.77;;;;;;;22.30;55.89;98834.41;6127408;23;20675;-90
2023/06/08 21:34:15;;;;;;;3.27;1.80;;;;;;;22.22;55.84;98826.38;6126396;23;20191;-90
2023/06/08 21:36:42;;;;;;;4.67;2.87;;;;;;;22.21;56.05;98824.69;6127667;23;20227;-90
2023/06/08 21:39:08;;;;;;;6.90;1.70;;;;;;;22.20;56.25;98821.16;6127217;23;20227;-90
2023/06/08 21:41:35;;;;;;;3.60;1.80;;;;;;;22.22;56.16;98818.34;6127562;23;20202;-89
2023/06/08 21:44:21;;;;;;;5.00;2.47;;;;;;;22.23;56.04;98825.34;6126162;23;20152;-90
2023/06/08 21:46:48;;;;;;;4.87;1.93;;;;;;;22.21;55.84;98827.34;6126295;23;20549;-90
2023/06/08 21:49:13;;;;;;;6.70;2.20;;;;;;;22.19;56.15;98832.88;6127257;23;20168;-90
2023/06/08 21:51:39;;;;;;;5.37;1.90;;;;;;;22.21;56.36;98838.88;6127413;23;20184;-90
2023/06/08 21:54:13;;;;;;;3.73;1.93;;;;;;;22.19;56.44;98824.00;6125765;23;20191;-90
2023/06/08 21:56:41;;;;;;;5.83;1.70;;;;;;;22.20;56.19;98837.19;6127514;23;20132;-90
2023/06/08 21:59:09;;;;;;;6.07;2.13;;;;;;;22.17;56.35;98831.34;6125558;23;20163;-89
2023/06/08 22:01:43;;;;;;;6.07;2.10;;;;;;;22.06;56.34;98840.47;6126417;23;20152;-90
2023/06/08 22:04:12;;;;;;;3.97;2.27;;;;;;;22.00;56.65;98827.78;6125598;23;20198;-89
2023/06/08 22:06:38;;;;;;;6.30;2.20;;;;;;;21.96;57.23;98823.72;6125475;23;20576;-90
2023/06/08 22:09:04;;;;;;;6.20;2.00;;;;;;;21.86;57.51;98831.03;6125567;23;20156;-90
2023/06/08 22:11:31;;;;;;;4.60;2.37;;;;;;;21.79;57.92;98837.97;6126930;23;20545;-89
2023/06/08 22:13:59;;;;;;;4.57;2.03;;;;;;;21.76;58.00;98831.13;6125419;23;20159;-90
2023/06/08 22:16:28;;;;;;;4.97;2.37;;;;;;;21.76;57.92;98831.13;6125480;23;20156;-90
2023/06/08 22:18:55;;;;;;;3.80;1.73;;;;;;;21.68;58.37;98824.88;6125441;23;20173;-90
2023/06/08 22:21:20;;;;;;;3.93;2.03;;;;;;;21.71;58.59;98827.25;6126883;23;20144;-90
2023/06/08 22:23:51;;;;;;;4.47;2.10;;;;;;;21.71;58.52;98829.91;6126489;23;20175;-91
2023/06/08 22:26:37;;;;;;;4.53;2.13;;;;;;;21.71;58.91;98832.59;6126637;23;20132;-90
2023/06/08 22:29:05;;;;;;;4.87;2.00;;;;;;;21.67;58.91;98839.25;6125757;23;20152;-91
2023/06/08 22:31:33;;;;;;;4.27;1.80;;;;;;;21.60;58.80;98827.50;6126702;23;20238;-90
2023/06/08 22:34:00;;;;;;;6.90;2.10;;;;;;;21.56;59.06;98827.00;6125070;23;20155;-91
2023/06/08 22:36:34;;;;;;;5.43;1.73;;;;;;;21.52;59.46;98819.44;6125205;23;20594;-90
2023/06/08 22:39:12;;;;;;;5.30;2.20;;;;;;;21.62;58.82;98812.22;6126832;23;20210;-90
2023/06/08 22:41:44;;;;;;;3.23;1.60;;;;;;;21.63;58.52;98812.03;6126332;23;20455;-90
2023/06/08 22:44:13;;;;;;;4.47;1.53;;;;;;;21.56;59.10;98807.50;6125286;23;20650;-90
2023/06/08 22:46:45;;;;;;;3.23;1.63;;;;;;;21.48;59.23;98799.44;6125774;23;20553;-90
2023/06/08 22:49:31;;;;;;;3.10;1.80;;;;;;;21.43;59.08;98794.59;6125390;23;20230;-90